메인 페이지
METAR-TAF:

METAR-TAF

공항 :

리야드, 사우디아라비아

위도: 24-43N, 경도: 046-44E, 고도: 635m

METAR: 누락

시각: 12:23 (09:23 UTC)

예보

예보는 21 시간 23분 전, 12:00시(UTC)에 발표되었습니다.
예보 대상 시간: 20일 12시부터 21일 18시까지 (UTC)
12kt
시정: 7000m
고도 4000ft 상공 구름 조금
고도 10000ft 상공 구름 보통
일시적
20일 12시부터 20일 18시까지 (UTC)
시정: 4000m
황사
전환 중
20일 19시부터 20일 21시까지 (UTC)
여러 방향의 바람 3kt

TAF: OERY 201200Z 2012/2118 09012KT 7000 FEW040 SCT100 TEMPO 2012/2018 4000 DU BECMG 2019/2021 VRB03KT

4,000개 이상의 공항 관측 자료 및 예보 (METAR 및 TAF 보고).

지도상에서 검색 가능한 기상관측소가 노란 점과 빨간 점으로 표시되어 있습니다.

기상관측소 명을 보려면 표시 위로 마우스를 이동하세요.

날씨 관측과 예보를 보려면 클릭하세요.

지도 변경 : 확대하려면 엑스 표시가 있는 녹색 버튼, 축소하려면 빼기 표시가 있는 녹색 버튼, 다음 페이지의 지도를 보려면 녹색 화살표를 클릭하세요.


METAR-TAF: